createdAt,value
2023-01-28T00:03:33.463Z,0.98
2023-01-28T00:11:12.232Z,0.86
2023-01-28T00:18:47.746Z,0.74
2023-01-28T00:26:22.283Z,0.54
2023-01-28T00:33:58.816Z,0.40
2023-01-28T00:41:32.913Z,0.31
2023-01-28T00:49:07.928Z,0.19
2023-01-28T00:56:41.703Z,-0.05
2023-01-28T01:04:26.941Z,-0.15
2023-01-28T01:12:03.063Z,-0.18
2023-01-28T01:19:39.519Z,-0.15
2023-01-28T01:27:13.347Z,-0.13
2023-01-28T01:34:48.554Z,-0.11
2023-01-28T01:42:23.254Z,-0.13
2023-01-28T01:50:00.967Z,-0.07
2023-01-28T01:57:37.207Z,-0.01
2023-01-28T02:05:16.075Z,0.01
2023-01-28T02:12:54.362Z,0.03
2023-01-28T02:20:41.953Z,0.06
2023-01-28T02:28:25.876Z,0.13
2023-01-28T02:36:09.222Z,0.17
2023-01-28T02:43:46.455Z,0.20
2023-01-28T02:51:33.770Z,0.21
2023-01-28T02:59:32.202Z,0.21
2023-01-28T03:07:10.942Z,0.23
2023-01-28T03:15:07.710Z,0.27
2023-01-28T03:23:06.332Z,0.32
2023-01-28T03:31:04.390Z,0.35
2023-01-28T03:38:43.046Z,0.37
2023-01-28T03:46:19.064Z,0.33
2023-01-28T03:53:53.017Z,0.37
2023-01-28T04:01:28.249Z,0.35
2023-01-28T04:09:02.388Z,0.30
2023-01-28T04:16:37.310Z,0.28
2023-01-28T04:24:11.399Z,0.28
2023-01-28T04:31:46.528Z,0.26
2023-01-28T04:39:20.254Z,0.32
2023-01-28T04:46:55.387Z,0.34
2023-01-28T04:54:29.522Z,0.33
2023-01-28T05:02:04.895Z,0.41
2023-01-28T05:09:38.745Z,0.49
2023-01-28T05:17:13.931Z,0.51
2023-01-28T05:24:49.180Z,0.52
2023-01-28T05:32:24.431Z,0.56
2023-01-28T05:39:58.531Z,0.51
2023-01-28T05:47:34.387Z,0.56
2023-01-28T05:55:09.142Z,0.57
2023-01-28T06:02:44.699Z,0.58
2023-01-28T06:10:18.613Z,0.60
2023-01-28T06:17:53.757Z,0.62
2023-01-28T06:25:27.564Z,0.63
2023-01-28T06:33:02.961Z,0.64
2023-01-28T06:40:36.996Z,0.68
2023-01-28T06:48:12.564Z,0.70
2023-01-28T06:55:46.372Z,0.68
2023-01-28T07:03:21.894Z,0.64
2023-01-28T07:10:55.774Z,0.68
2023-01-28T07:18:31.390Z,0.73
2023-01-28T07:26:05.881Z,0.76
2023-01-28T07:33:41.160Z,0.84
2023-01-28T07:41:15.176Z,0.84
2023-01-28T07:48:50.329Z,0.86
2023-01-28T07:56:24.478Z,0.90
2023-01-28T08:03:59.457Z,0.87
2023-01-28T08:11:33.886Z,0.89
2023-01-28T08:19:09.323Z,0.95
2023-01-28T08:26:44.932Z,0.96
2023-01-28T08:34:20.122Z,0.98
2023-01-28T08:41:54.204Z,1.03
2023-01-28T08:49:29.635Z,1.04
2023-01-28T08:57:04.400Z,1.05
2023-01-28T09:04:39.957Z,1.10
2023-01-28T09:12:13.762Z,1.11
2023-01-28T09:19:49.067Z,1.16
2023-01-28T09:27:22.786Z,1.20
2023-01-28T09:34:58.140Z,1.27
2023-01-28T09:42:51.416Z,1.30
2023-01-28T09:50:32.491Z,1.34
2023-01-28T09:58:09.258Z,1.36
2023-01-28T10:05:54.540Z,1.40
2023-01-28T10:13:37.848Z,1.47
2023-01-28T10:21:19.951Z,1.51
2023-01-28T10:29:01.714Z,1.54
2023-01-28T10:36:36.893Z,1.61
2023-01-28T10:44:17.964Z,1.62
2023-01-28T10:51:53.150Z,1.62
2023-01-28T10:59:29.957Z,1.65
2023-01-28T11:07:07.112Z,1.67
2023-01-28T11:14:51.214Z,1.72
2023-01-28T11:22:33.610Z,1.76
2023-01-28T11:30:22.249Z,1.80
2023-01-28T11:37:58.018Z,1.81
2023-01-28T11:45:40.988Z,1.83
2023-01-28T11:53:51.611Z,1.78
2023-01-28T12:01:34.445Z,1.80
2023-01-28T12:09:18.727Z,1.77
2023-01-28T12:17:02.439Z,1.81
2023-01-28T12:25:15.638Z,1.80
2023-01-28T12:33:06.177Z,1.81
2023-01-28T12:40:51.327Z,1.79
2023-01-28T12:48:33.850Z,1.79
2023-01-28T12:56:15.715Z,1.79
2023-01-28T13:03:55.522Z,1.82
2023-01-28T13:11:38.407Z,1.82
2023-01-28T13:19:25.167Z,1.85
2023-01-28T13:27:11.007Z,1.82
2023-01-28T13:34:45.074Z,1.86
2023-01-28T13:42:36.305Z,1.90
2023-01-28T13:50:18.638Z,1.91
2023-01-28T13:58:34.820Z,1.91
2023-01-28T14:06:50.812Z,1.95
2023-01-28T14:14:45.240Z,1.92
2023-01-28T14:22:21.861Z,1.92
2023-01-28T14:30:08.441Z,1.81
2023-01-28T14:37:42.560Z,1.84
2023-01-28T14:45:31.505Z,1.88
2023-01-28T14:53:27.417Z,1.85
2023-01-28T15:01:02.958Z,1.83
2023-01-28T15:08:38.018Z,1.84
2023-01-28T15:16:20.637Z,1.81
2023-01-28T15:23:57.644Z,1.79
2023-01-28T15:31:35.041Z,1.76
2023-01-28T15:39:16.266Z,1.78
2023-01-28T15:46:51.404Z,1.77
2023-01-28T15:54:26.323Z,1.74
2023-01-28T16:02:23.294Z,1.72
2023-01-28T16:10:00.728Z,1.62
2023-01-28T16:17:43.336Z,1.61
2023-01-28T16:25:37.060Z,1.62
2023-01-28T16:33:20.352Z,1.62
2023-01-28T16:40:54.166Z,1.56
2023-01-28T16:48:30.532Z,1.49
2023-01-28T16:56:07.090Z,1.50
2023-01-28T17:03:43.548Z,1.42
2023-01-28T17:11:18.074Z,1.37
2023-01-28T17:18:53.754Z,1.32
2023-01-28T17:26:28.952Z,1.33
2023-01-28T17:34:06.834Z,1.26
2023-01-28T17:41:40.641Z,1.24
2023-01-28T17:49:16.305Z,1.23
2023-01-28T17:56:51.064Z,1.18
2023-01-28T18:04:26.565Z,1.13
2023-01-28T18:12:00.490Z,1.07
2023-01-28T18:19:36.185Z,1.03
2023-01-28T18:27:09.950Z,1.05
2023-01-28T18:34:45.238Z,1.03
2023-01-28T18:42:19.011Z,0.93
2023-01-28T18:49:54.260Z,0.93
2023-01-28T18:57:28.353Z,0.92
2023-01-28T19:05:03.565Z,0.85
2023-01-28T19:12:37.358Z,0.88
2023-01-28T19:20:13.832Z,0.85
2023-01-28T19:27:47.803Z,0.80
2023-01-28T19:35:24.187Z,0.79
2023-01-28T19:42:58.059Z,0.78
2023-01-28T19:50:33.344Z,0.75
2023-01-28T19:58:07.270Z,0.74
2023-01-28T20:05:42.521Z,0.71
2023-01-28T20:13:16.891Z,0.65
2023-01-28T20:20:54.903Z,0.61
2023-01-28T20:28:28.957Z,0.55
2023-01-28T20:36:05.118Z,0.48
2023-01-28T20:43:40.664Z,0.46
2023-01-28T20:51:17.776Z,0.42
2023-01-28T20:58:56.808Z,0.39
2023-01-28T21:06:32.311Z,0.33
2023-01-28T21:14:06.611Z,0.34
2023-01-28T21:21:42.974Z,0.29
2023-01-28T21:29:18.800Z,0.25
2023-01-28T21:36:55.335Z,0.23
2023-01-28T21:44:29.133Z,0.16
2023-01-28T21:52:04.243Z,0.10
2023-01-28T21:59:40.412Z,0.09
2023-01-28T22:07:17.492Z,0.02
2023-01-28T22:14:51.635Z,0.00
2023-01-28T22:22:26.591Z,-0.10
2023-01-28T22:30:00.420Z,-0.06
2023-01-28T22:37:35.623Z,-0.06
2023-01-28T22:45:10.705Z,-0.08
2023-01-28T22:52:45.836Z,-0.07
2023-01-28T23:00:21.202Z,-0.13
2023-01-28T23:08:09.971Z,-0.14
2023-01-28T23:16:01.615Z,-0.15
2023-01-28T23:23:54.351Z,-0.13
2023-01-28T23:31:28.331Z,-0.15
2023-01-28T23:39:03.486Z,-0.11
2023-01-28T23:46:39.716Z,-0.06
2023-01-28T23:54:15.314Z,-0.04
